Lou del, Illinois
Current Conditions -  °F | °C
As of 6:53 AM on Saturday 25 Oct 2014 (Local Time) from KCPS Reporting Station
Haze Haze  
Wind Chill: 55°   Ceiling: Unl
Heat Index: 55°   Visibility: 5mi
Dew Point: 54°   Wind: 3mph
Humidity: 96%   Direction: 240°WSW
Pressure: 30.01"   Gusts: NA
Location:  38.3034°N, 90.1358°W
Report Text: KCPS 251153Z 24003KT 5SM BR CLR 13/12 A3001 RMK AO2 SLP161 T01280122 10172 20117 53008
Loading
Personal Weather Stations






























Interactive Weather Map
Tropical Storm Tracking
New forecast layout! Learn more

10-Day Weather Forecast

Advertisements
Track Severe Weather on mobile